Buckley, Michigan
Current Conditions -  °F | °C
As of 2:53 AM on Thursday 18 Dec 2014 (Local Time) from KTVC Reporting Station
Overcast Overcast  
Wind Chill: 22°   Ceiling: 1300
Heat Index: 30°   Visibility: 9mi
Dew Point: 25°   Wind: 8mph
Humidity: 82%   Direction: 340°NNW
Pressure: 30.19"   Gusts: NA
Location:  44.5°N, 85.68°W
Report Text: KTVC 180753Z AUTO 34007KT 9SM OVC013 M01/M04 A3019 RMK AO2 SNB43E52 SLP231 P0000 T10111039
Loading
Personal Weather Stations






























Interactive Weather Map New forecast layout! Learn more

10-Day Weather Forecast

Advertisements
Track Severe Weather on mobile